Terminal Aerodrome Forecast
Issued by NWS Cleveland, OH

Home | Current Version | Previous Version | Graphics & Text | Print | Product List | Glossary On
Versions: 1 2 3 4 5 6 7 8 9 10 11 12 13 14 15 16 17 18 19 20 21 22 23 24
000
FTUS41 KCLE 011600 AAA
TAFMFD
TAF AMD
KMFD 011603Z 0116/0212 24007KT 1SM -SN BKN009 OVC018
      TEMPO 0116/0120 3SM -SN BKN015 OVC025
     FM012000 24006KT 4SM -SN OVC025
     FM020200 26008KT 6SM -SN BR OVC015
     FM020500 28007KT P6SM OVC015=

USA.gov is the U.S. government's official web portal to all federal, state and local government web resources and services.